createdAt,value
2019-01-29T00:04:08.375Z,6.43
2019-01-29T00:09:09.680Z,5.27
2019-01-29T00:14:10.962Z,6.13
2019-01-29T00:19:12.237Z,5.50
2019-01-29T00:24:13.885Z,6.40
2019-01-29T00:29:15.169Z,7.23
2019-01-29T00:34:16.462Z,6.30
2019-01-29T00:39:17.754Z,6.63
2019-01-29T00:44:19.368Z,5.93
2019-01-29T00:49:22.615Z,5.43
2019-01-29T00:54:23.726Z,5.20
2019-01-29T00:59:25.005Z,5.30
2019-01-29T01:04:26.283Z,6.07
2019-01-29T01:09:27.594Z,6.60
2019-01-29T01:14:29.234Z,6.70
2019-01-29T01:19:30.985Z,7.03
2019-01-29T01:24:32.265Z,6.97
2019-01-29T01:29:33.549Z,6.97
2019-01-29T01:34:34.834Z,6.53
2019-01-29T01:39:36.121Z,7.23
2019-01-29T01:44:37.405Z,6.67
2019-01-29T01:49:38.692Z,7.93
2019-01-29T01:54:39.993Z,7.30
2019-01-29T01:59:41.671Z,7.00
2019-01-29T02:04:42.954Z,7.77
2019-01-29T02:09:44.618Z,7.23
2019-01-29T02:14:45.937Z,6.90
2019-01-29T02:19:47.217Z,7.60
2019-01-29T02:24:48.803Z,8.17
2019-01-29T02:29:50.093Z,6.77
2019-01-29T02:34:51.366Z,6.97
2019-01-29T02:39:52.645Z,6.27
2019-01-29T02:44:54.317Z,6.50
2019-01-29T02:49:55.597Z,6.13
2019-01-29T02:54:56.879Z,6.87
2019-01-29T02:59:58.532Z,6.73
2019-01-29T03:04:59.815Z,7.60
2019-01-29T03:10:01.123Z,8.17
2019-01-29T03:15:05.407Z,7.70
2019-01-29T03:20:09.793Z,7.40
2019-01-29T03:25:11.605Z,7.43
2019-01-29T03:30:20.871Z,6.73
2019-01-29T03:35:22.560Z,5.77
2019-01-29T03:40:25.346Z,5.40
2019-01-29T03:45:26.647Z,6.03
2019-01-29T03:50:29.188Z,5.10
2019-01-29T03:55:30.595Z,5.77
2019-01-29T04:00:31.895Z,5.72
2019-01-29T04:05:33.190Z,5.30
2019-01-29T04:10:34.482Z,4.73
2019-01-29T04:15:36.062Z,4.60
2019-01-29T04:20:37.659Z,4.50
2019-01-29T04:25:38.945Z,4.87
2019-01-29T04:30:40.210Z,5.33
2019-01-29T04:35:41.492Z,5.73
2019-01-29T04:40:42.770Z,4.90
2019-01-29T04:45:44.042Z,5.17
2019-01-29T04:50:45.654Z,5.53
2019-01-29T04:55:46.923Z,4.90
2019-01-29T05:00:48.524Z,5.37
2019-01-29T05:05:49.800Z,5.13
2019-01-29T05:10:51.103Z,5.40
2019-01-29T05:15:52.377Z,5.30
2019-01-29T05:20:54.009Z,5.50
2019-01-29T05:25:55.281Z,5.07
2019-01-29T05:30:56.927Z,5.80
2019-01-29T05:35:58.207Z,5.03
2019-01-29T05:40:59.776Z,4.83
2019-01-29T05:46:01.348Z,4.67
2019-01-29T05:51:02.625Z,4.70
2019-01-29T05:56:04.494Z,4.70
2019-01-29T06:01:05.908Z,6.00
2019-01-29T06:06:07.446Z,4.50
2019-01-29T06:11:09.151Z,5.30
2019-01-29T06:16:10.426Z,4.67
2019-01-29T06:21:11.707Z,4.17
2019-01-29T06:26:13.335Z,4.80
2019-01-29T06:31:14.613Z,4.50
2019-01-29T06:36:15.889Z,5.42
2019-01-29T06:41:17.167Z,4.37
2019-01-29T06:46:18.441Z,5.07
2019-01-29T06:51:20.087Z,4.50
2019-01-29T06:56:21.393Z,4.63
2019-01-29T07:01:22.938Z,3.93
2019-01-29T07:06:24.210Z,4.80
2019-01-29T07:11:25.546Z,10.40
2019-01-29T07:16:37.761Z,10.83
2019-01-29T07:21:39.042Z,8.10
2019-01-29T07:26:40.318Z,6.77
2019-01-29T07:31:41.593Z,5.77
2019-01-29T07:36:43.205Z,6.30
2019-01-29T07:41:44.881Z,5.90
2019-01-29T07:46:46.167Z,6.50
2019-01-29T07:51:47.439Z,6.87
2019-01-29T07:56:49.067Z,6.93
2019-01-29T08:01:50.671Z,5.87
2019-01-29T08:06:51.969Z,8.57
2019-01-29T08:11:53.585Z,5.53
2019-01-29T08:16:54.868Z,6.77
2019-01-29T08:21:56.435Z,6.57
2019-01-29T08:26:57.717Z,6.33
2019-01-29T08:31:58.989Z,5.17
2019-01-29T08:37:00.267Z,4.30
2019-01-29T08:42:01.944Z,4.40
2019-01-29T08:47:03.322Z,4.33
2019-01-29T08:52:04.602Z,3.57
2019-01-29T08:57:05.878Z,3.70
2019-01-29T09:02:08.216Z,3.00
2019-01-29T09:07:09.662Z,2.90
2019-01-29T09:12:10.945Z,3.27
2019-01-29T09:17:12.232Z,3.30
2019-01-29T09:22:13.511Z,3.43
2019-01-29T09:27:14.790Z,3.00
2019-01-29T09:32:16.037Z,3.20
2019-01-29T09:37:17.612Z,3.23
2019-01-29T09:42:18.890Z,3.10
2019-01-29T09:47:20.177Z,2.73
2019-01-29T09:52:21.449Z,2.67
2019-01-29T09:57:22.722Z,2.80
2019-01-29T10:02:24.391Z,2.60
2019-01-29T10:07:25.693Z,2.47
2019-01-29T10:12:26.969Z,2.30
2019-01-29T10:17:28.655Z,2.40
2019-01-29T10:22:30.285Z,1.80
2019-01-29T10:27:31.675Z,1.90
2019-01-29T10:32:33.069Z,2.00
2019-01-29T10:37:34.704Z,1.70
2019-01-29T10:42:35.978Z,1.80
2019-01-29T10:47:37.707Z,1.80
2019-01-29T10:52:38.933Z,1.70
2019-01-29T10:57:40.211Z,1.40
2019-01-29T11:02:41.483Z,1.60
2019-01-29T11:07:42.789Z,1.43
2019-01-29T11:12:44.082Z,1.53
2019-01-29T11:17:45.417Z,1.70
2019-01-29T11:22:46.939Z,1.47
2019-01-29T11:27:48.217Z,1.80
2019-01-29T11:32:49.490Z,2.53
2019-01-29T11:37:50.769Z,2.23
2019-01-29T11:42:52.046Z,2.03
2019-01-29T11:47:53.330Z,2.60
2019-01-29T11:52:54.962Z,1.77
2019-01-29T11:57:56.609Z,2.03
2019-01-29T12:02:58.317Z,1.77
2019-01-29T12:07:59.622Z,1.80
2019-01-29T12:13:02.544Z,1.93
2019-01-29T12:18:04.421Z,2.17
2019-01-29T12:23:05.702Z,1.87
2019-01-29T12:28:07.321Z,1.70
2019-01-29T12:33:08.609Z,1.40
2019-01-29T12:38:09.883Z,1.50
2019-01-29T12:43:11.163Z,1.70
2019-01-29T12:48:12.449Z,2.20
2019-01-29T12:53:15.641Z,2.40
2019-01-29T12:58:17.287Z,1.27
2019-01-29T13:03:18.969Z,2.87
2019-01-29T13:08:20.381Z,3.03
2019-01-29T13:13:21.662Z,2.30
2019-01-29T13:18:22.937Z,1.93
2019-01-29T13:23:24.210Z,2.53
2019-01-29T13:28:25.517Z,2.60
2019-01-29T13:33:27.162Z,1.67
2019-01-29T13:38:28.447Z,2.13
2019-01-29T13:43:29.717Z,1.97
2019-01-29T13:48:30.989Z,2.90
2019-01-29T13:53:32.645Z,2.90
2019-01-29T13:58:34.224Z,3.17
2019-01-29T14:03:35.930Z,1.60
2019-01-29T14:08:37.577Z,2.00
2019-01-29T14:13:38.853Z,1.50
2019-01-29T14:18:40.916Z,1.80
2019-01-29T14:23:42.746Z,2.20
2019-01-29T14:28:44.038Z,3.03
2019-01-29T14:33:47.176Z,2.00
2019-01-29T14:39:18.193Z,2.50
2019-01-29T14:44:19.474Z,1.57
2019-01-29T14:49:20.753Z,1.80
2019-01-29T14:54:22.048Z,1.63
2019-01-29T14:59:23.329Z,4.43
2019-01-29T15:04:24.612Z,1.80
2019-01-29T15:09:26.370Z,1.90
2019-01-29T15:14:27.943Z,4.13
2019-01-29T15:19:29.222Z,2.47
2019-01-29T15:24:30.558Z,5.80
2019-01-29T15:29:31.777Z,3.93
2019-01-29T15:34:33.058Z,3.53
2019-01-29T15:39:34.337Z,2.67
2019-01-29T15:44:35.993Z,2.97
2019-01-29T15:49:37.284Z,2.73
2019-01-29T15:59:49.267Z,4.20
2019-01-29T16:04:50.576Z,4.10
2019-01-29T16:09:53.543Z,2.97
2019-01-29T16:14:54.953Z,3.47
2019-01-29T16:19:58.127Z,3.97
2019-01-29T16:25:00.254Z,3.90
2019-01-29T16:30:02.286Z,5.10
2019-01-29T16:35:06.178Z,9.10
2019-01-29T16:40:14.716Z,6.80
2019-01-29T16:45:27.724Z,5.77
2019-01-29T16:50:29.131Z,7.80
2019-01-29T16:55:31.753Z,5.73
2019-01-29T17:00:35.292Z,5.80
2019-01-29T17:05:36.775Z,4.60
2019-01-29T17:10:38.084Z,5.73
2019-01-29T17:15:39.365Z,4.60
2019-01-29T17:20:42.351Z,4.23
2019-01-29T17:25:43.625Z,6.30
2019-01-29T17:30:44.951Z,4.90
2019-01-29T17:35:46.338Z,9.20
2019-01-29T17:40:47.644Z,9.23
2019-01-29T17:45:50.692Z,11.33
2019-01-29T17:50:52.021Z,10.80
2019-01-29T17:55:53.875Z,7.93
2019-01-29T18:00:57.058Z,7.30
2019-01-29T18:05:58.694Z,9.28
2019-01-29T18:11:00.229Z,9.70
2019-01-29T18:16:01.849Z,11.93
2019-01-29T18:21:03.145Z,7.23
2019-01-29T18:26:04.862Z,18.57
2019-01-29T18:31:06.137Z,12.40
2019-01-29T18:36:07.785Z,14.10
2019-01-29T18:41:09.321Z,6.67
2019-01-29T18:46:10.706Z,8.20
2019-01-29T18:51:12.017Z,13.50
2019-01-29T18:56:13.274Z,11.00
2019-01-29T19:01:14.563Z,8.40
2019-01-29T19:06:15.961Z,9.67
2019-01-29T19:11:17.649Z,7.77
2019-01-29T19:16:20.307Z,8.57
2019-01-29T19:21:21.554Z,11.40
2019-01-29T19:26:22.855Z,11.70
2019-01-29T19:31:24.150Z,11.00
2019-01-29T19:36:25.438Z,7.47
2019-01-29T19:41:27.095Z,6.50
2019-01-29T19:46:28.374Z,5.47
2019-01-29T19:51:29.672Z,8.07
2019-01-29T19:56:31.277Z,13.83
2019-01-29T20:01:32.563Z,12.63
2019-01-29T20:06:33.839Z,5.93
2019-01-29T20:11:35.154Z,10.43
2019-01-29T20:16:36.435Z,8.40
2019-01-29T20:21:38.117Z,7.30
2019-01-29T20:26:39.349Z,6.20
2019-01-29T20:31:40.676Z,11.00
2019-01-29T20:36:42.370Z,7.57
2019-01-29T20:41:44.624Z,5.17
2019-01-29T20:46:45.890Z,9.43
2019-01-29T20:51:47.491Z,6.53
2019-01-29T20:56:49.091Z,7.53
2019-01-29T21:01:50.738Z,10.63
2019-01-29T21:06:52.011Z,6.07
2019-01-29T21:11:53.318Z,8.97
2019-01-29T21:16:54.594Z,7.23
2019-01-29T21:21:56.102Z,7.75
2019-01-29T21:26:57.335Z,6.83
2019-01-29T21:31:58.611Z,7.37
2019-01-29T21:36:59.892Z,6.23
2019-01-29T21:42:01.165Z,5.10
2019-01-29T21:47:02.443Z,5.80
2019-01-29T21:52:03.722Z,6.00
2019-01-29T21:57:04.999Z,3.97
2019-01-29T22:02:06.609Z,6.00
2019-01-29T22:07:07.953Z,5.53
2019-01-29T22:12:09.251Z,4.23
2019-01-29T22:17:10.526Z,5.17
2019-01-29T22:22:11.810Z,4.97
2019-01-29T22:27:13.462Z,5.23
2019-01-29T22:32:14.745Z,4.20
2019-01-29T22:37:16.431Z,3.90
2019-01-29T22:42:17.703Z,3.00
2019-01-29T22:47:19.355Z,2.67
2019-01-29T22:52:20.630Z,4.97
2019-01-29T22:57:21.906Z,6.27
2019-01-29T23:02:23.197Z,4.60
2019-01-29T23:07:24.473Z,5.13
2019-01-29T23:12:26.083Z,3.90
2019-01-29T23:17:27.357Z,3.93
2019-01-29T23:22:28.637Z,4.47
2019-01-29T23:27:29.910Z,4.47
2019-01-29T23:32:31.292Z,5.13
2019-01-29T23:37:32.603Z,6.10
2019-01-29T23:42:34.233Z,5.57
2019-01-29T23:47:35.501Z,5.93
2019-01-29T23:52:36.785Z,6.63
2019-01-29T23:57:38.067Z,6.60
